sensor_id;sensor_type;location;lat;lon;timestamp;P1;durP1;ratioP1;P2;durP2;ratioP2
17441;SDS011;8838;50.144;8.176;2023-06-10T00:00:16;7.93;;;5.95;;
17441;SDS011;8838;50.144;8.176;2023-06-10T00:02:43;6.60;;;5.93;;
17441;SDS011;8838;50.144;8.176;2023-06-10T00:05:10;10.70;;;5.90;;
17441;SDS011;8838;50.144;8.176;2023-06-10T00:07:37;11.38;;;5.80;;
17441;SDS011;8838;50.144;8.176;2023-06-10T00:10:04;8.80;;;5.90;;
17441;SDS011;8838;50.144;8.176;2023-06-10T00:12:31;12.98;;;6.00;;
17441;SDS011;8838;50.144;8.176;2023-06-10T00:15:05;7.20;;;5.60;;
17441;SDS011;8838;50.144;8.176;2023-06-10T00:17:32;9.52;;;5.65;;
17441;SDS011;8838;50.144;8.176;2023-06-10T00:19:59;11.13;;;6.03;;
17441;SDS011;8838;50.144;8.176;2023-06-10T00:22:29;10.20;;;5.80;;
17441;SDS011;8838;50.144;8.176;2023-06-10T00:24:57;8.90;;;5.88;;
17441;SDS011;8838;50.144;8.176;2023-06-10T00:27:24;11.75;;;5.88;;
17441;SDS011;8838;50.144;8.176;2023-06-10T00:29:56;7.25;;;5.70;;
17441;SDS011;8838;50.144;8.176;2023-06-10T00:32:24;6.55;;;5.40;;
17441;SDS011;8838;50.144;8.176;2023-06-10T00:34:51;11.02;;;5.80;;
17441;SDS011;8838;50.144;8.176;2023-06-10T00:37:17;11.23;;;5.53;;
17441;SDS011;8838;50.144;8.176;2023-06-10T00:39:44;8.93;;;5.57;;
17441;SDS011;8838;50.144;8.176;2023-06-10T00:42:11;10.38;;;5.88;;
17441;SDS011;8838;50.144;8.176;2023-06-10T00:44:38;7.18;;;5.30;;
17441;SDS011;8838;50.144;8.176;2023-06-10T00:47:05;10.25;;;5.35;;
17441;SDS011;8838;50.144;8.176;2023-06-10T00:49:35;7.90;;;5.78;;
17441;SDS011;8838;50.144;8.176;2023-06-10T00:52:02;7.97;;;5.53;;
17441;SDS011;8838;50.144;8.176;2023-06-10T00:54:30;7.45;;;5.57;;
17441;SDS011;8838;50.144;8.176;2023-06-10T00:56:59;10.00;;;5.60;;
17441;SDS011;8838;50.144;8.176;2023-06-10T00:59:27;8.77;;;5.78;;
17441;SDS011;8838;50.144;8.176;2023-06-10T01:01:55;10.45;;;5.47;;
17441;SDS011;8838;50.144;8.176;2023-06-10T01:04:23;13.02;;;6.00;;
17441;SDS011;8838;50.144;8.176;2023-06-10T01:06:52;7.65;;;5.20;;
17441;SDS011;8838;50.144;8.176;2023-06-10T01:09:32;5.85;;;4.80;;
17441;SDS011;8838;50.144;8.176;2023-06-10T01:12:05;6.50;;;4.80;;
17441;SDS011;8838;50.144;8.176;2023-06-10T01:14:37;7.22;;;5.10;;
17441;SDS011;8838;50.144;8.176;2023-06-10T01:17:10;6.63;;;5.38;;
17441;SDS011;8838;50.144;8.176;2023-06-10T01:19:37;8.18;;;5.40;;
17441;SDS011;8838;50.144;8.176;2023-06-10T01:22:07;6.55;;;5.40;;
17441;SDS011;8838;50.144;8.176;2023-06-10T01:24:35;10.32;;;5.65;;
17441;SDS011;8838;50.144;8.176;2023-06-10T01:27:05;8.45;;;5.32;;
17441;SDS011;8838;50.144;8.176;2023-06-10T01:29:43;7.72;;;5.10;;
17441;SDS011;8838;50.144;8.176;2023-06-10T01:32:18;7.93;;;5.85;;
17441;SDS011;8838;50.144;8.176;2023-06-10T01:34:52;7.10;;;5.95;;
17441;SDS011;8838;50.144;8.176;2023-06-10T01:37:22;7.35;;;5.60;;
17441;SDS011;8838;50.144;8.176;2023-06-10T01:39:55;7.50;;;5.93;;
17441;SDS011;8838;50.144;8.176;2023-06-10T01:42:24;12.30;;;6.38;;
17441;SDS011;8838;50.144;8.176;2023-06-10T01:44:52;6.50;;;5.50;;
17441;SDS011;8838;50.144;8.176;2023-06-10T01:47:19;8.18;;;6.10;;
17441;SDS011;8838;50.144;8.176;2023-06-10T01:49:46;8.50;;;5.78;;
17441;SDS011;8838;50.144;8.176;2023-06-10T01:52:13;10.05;;;6.00;;
17441;SDS011;8838;50.144;8.176;2023-06-10T01:54:41;7.53;;;6.03;;
17441;SDS011;8838;50.144;8.176;2023-06-10T01:57:07;8.77;;;6.10;;
17441;SDS011;8838;50.144;8.176;2023-06-10T01:59:34;8.77;;;6.13;;
17441;SDS011;8838;50.144;8.176;2023-06-10T02:02:03;8.40;;;6.53;;
17441;SDS011;8838;50.144;8.176;2023-06-10T02:04:30;9.52;;;6.47;;
17441;SDS011;8838;50.144;8.176;2023-06-10T02:06:57;6.93;;;6.22;;
17441;SDS011;8838;50.144;8.176;2023-06-10T02:09:24;10.00;;;7.20;;
17441;SDS011;8838;50.144;8.176;2023-06-10T02:11:52;10.60;;;7.72;;
17441;SDS011;8838;50.144;8.176;2023-06-10T02:14:19;10.55;;;7.72;;
17441;SDS011;8838;50.144;8.176;2023-06-10T02:16:47;9.00;;;7.40;;
17441;SDS011;8838;50.144;8.176;2023-06-10T02:19:14;13.63;;;7.75;;
17441;SDS011;8838;50.144;8.176;2023-06-10T02:21:40;10.43;;;7.70;;
17441;SDS011;8838;50.144;8.176;2023-06-10T02:24:07;10.15;;;8.05;;
17441;SDS011;8838;50.144;8.176;2023-06-10T02:26:34;12.43;;;8.23;;
17441;SDS011;8838;50.144;8.176;2023-06-10T02:29:02;10.77;;;8.32;;
17441;SDS011;8838;50.144;8.176;2023-06-10T02:31:29;11.60;;;7.78;;
17441;SDS011;8838;50.144;8.176;2023-06-10T02:33:56;10.15;;;8.02;;
17441;SDS011;8838;50.144;8.176;2023-06-10T02:36:23;8.95;;;7.82;;
17441;SDS011;8838;50.144;8.176;2023-06-10T02:38:53;14.18;;;7.60;;
17441;SDS011;8838;50.144;8.176;2023-06-10T02:41:20;9.93;;;7.75;;
17441;SDS011;8838;50.144;8.176;2023-06-10T02:43:48;16.35;;;8.13;;
17441;SDS011;8838;50.144;8.176;2023-06-10T02:46:16;9.13;;;7.68;;
17441;SDS011;8838;50.144;8.176;2023-06-10T02:48:43;12.82;;;7.10;;
17441;SDS011;8838;50.144;8.176;2023-06-10T02:51:10;9.32;;;7.13;;
17441;SDS011;8838;50.144;8.176;2023-06-10T02:53:36;8.48;;;7.30;;
17441;SDS011;8838;50.144;8.176;2023-06-10T02:56:03;10.13;;;7.40;;
17441;SDS011;8838;50.144;8.176;2023-06-10T02:58:30;10.38;;;7.30;;
17441;SDS011;8838;50.144;8.176;2023-06-10T03:00:57;9.32;;;6.97;;
17441;SDS011;8838;50.144;8.176;2023-06-10T03:03:25;10.95;;;7.43;;
17441;SDS011;8838;50.144;8.176;2023-06-10T03:05:52;9.88;;;7.15;;
17441;SDS011;8838;50.144;8.176;2023-06-10T03:08:19;8.23;;;6.80;;
17441;SDS011;8838;50.144;8.176;2023-06-10T03:10:46;9.35;;;7.18;;
17441;SDS011;8838;50.144;8.176;2023-06-10T03:13:13;9.77;;;7.50;;
17441;SDS011;8838;50.144;8.176;2023-06-10T03:15:40;9.25;;;7.13;;
17441;SDS011;8838;50.144;8.176;2023-06-10T03:18:07;11.35;;;7.35;;
17441;SDS011;8838;50.144;8.176;2023-06-10T03:20:35;8.30;;;7.13;;
17441;SDS011;8838;50.144;8.176;2023-06-10T03:23:03;10.90;;;7.20;;
17441;SDS011;8838;50.144;8.176;2023-06-10T03:25:31;10.68;;;7.80;;
17441;SDS011;8838;50.144;8.176;2023-06-10T03:27:58;7.88;;;6.80;;
17441;SDS011;8838;50.144;8.176;2023-06-10T03:30:25;8.27;;;6.53;;
17441;SDS011;8838;50.144;8.176;2023-06-10T03:32:51;8.25;;;6.95;;
17441;SDS011;8838;50.144;8.176;2023-06-10T03:35:18;13.73;;;8.05;;
17441;SDS011;8838;50.144;8.176;2023-06-10T03:37:46;8.63;;;7.22;;
17441;SDS011;8838;50.144;8.176;2023-06-10T03:40:13;8.38;;;6.70;;
17441;SDS011;8838;50.144;8.176;2023-06-10T03:42:40;8.40;;;6.85;;
17441;SDS011;8838;50.144;8.176;2023-06-10T03:45:09;8.27;;;7.10;;
17441;SDS011;8838;50.144;8.176;2023-06-10T03:47:37;8.30;;;7.05;;
17441;SDS011;8838;50.144;8.176;2023-06-10T03:50:06;9.20;;;6.90;;
17441;SDS011;8838;50.144;8.176;2023-06-10T03:52:34;11.10;;;8.05;;
17441;SDS011;8838;50.144;8.176;2023-06-10T03:55:02;8.80;;;7.55;;
17441;SDS011;8838;50.144;8.176;2023-06-10T03:57:33;9.80;;;7.90;;
17441;SDS011;8838;50.144;8.176;2023-06-10T03:59:59;8.85;;;7.57;;
17441;SDS011;8838;50.144;8.176;2023-06-10T04:02:30;9.90;;;7.32;;
17441;SDS011;8838;50.144;8.176;2023-06-10T04:04:57;9.18;;;7.05;;
17441;SDS011;8838;50.144;8.176;2023-06-10T04:07:25;8.93;;;7.50;;
17441;SDS011;8838;50.144;8.176;2023-06-10T04:09:52;11.30;;;8.00;;
17441;SDS011;8838;50.144;8.176;2023-06-10T04:12:20;9.25;;;7.38;;
17441;SDS011;8838;50.144;8.176;2023-06-10T04:14:47;9.98;;;7.68;;
17441;SDS011;8838;50.144;8.176;2023-06-10T04:17:13;10.45;;;7.85;;
17441;SDS011;8838;50.144;8.176;2023-06-10T04:19:40;8.73;;;7.82;;
17441;SDS011;8838;50.144;8.176;2023-06-10T04:22:07;12.93;;;7.90;;
17441;SDS011;8838;50.144;8.176;2023-06-10T04:24:34;9.85;;;8.05;;
17441;SDS011;8838;50.144;8.176;2023-06-10T04:27:00;11.18;;;8.02;;
17441;SDS011;8838;50.144;8.176;2023-06-10T04:29:29;11.05;;;8.32;;
17441;SDS011;8838;50.144;8.176;2023-06-10T04:31:56;10.30;;;8.18;;
17441;SDS011;8838;50.144;8.176;2023-06-10T04:34:23;11.32;;;8.50;;
17441;SDS011;8838;50.144;8.176;2023-06-10T04:36:50;9.95;;;8.52;;
17441;SDS011;8838;50.144;8.176;2023-06-10T04:39:17;9.00;;;8.10;;
17441;SDS011;8838;50.144;8.176;2023-06-10T04:41:44;11.23;;;8.30;;
17441;SDS011;8838;50.144;8.176;2023-06-10T04:44:11;10.43;;;8.30;;
17441;SDS011;8838;50.144;8.176;2023-06-10T04:46:40;11.65;;;7.80;;
17441;SDS011;8838;50.144;8.176;2023-06-10T04:49:07;9.57;;;7.97;;
17441;SDS011;8838;50.144;8.176;2023-06-10T04:51:33;8.75;;;7.75;;
17441;SDS011;8838;50.144;8.176;2023-06-10T04:54:00;12.38;;;8.27;;
17441;SDS011;8838;50.144;8.176;2023-06-10T04:56:28;13.05;;;8.88;;
17441;SDS011;8838;50.144;8.176;2023-06-10T04:58:55;12.82;;;8.10;;
17441;SDS011;8838;50.144;8.176;2023-06-10T05:01:22;9.23;;;8.32;;
17441;SDS011;8838;50.144;8.176;2023-06-10T05:03:51;13.07;;;8.77;;
17441;SDS011;8838;50.144;8.176;2023-06-10T05:06:18;11.80;;;8.60;;
17441;SDS011;8838;50.144;8.176;2023-06-10T05:08:44;10.93;;;8.27;;
17441;SDS011;8838;50.144;8.176;2023-06-10T05:11:11;15.02;;;8.35;;
17441;SDS011;8838;50.144;8.176;2023-06-10T05:13:38;11.00;;;8.52;;
17441;SDS011;8838;50.144;8.176;2023-06-10T05:16:06;9.20;;;8.18;;
17441;SDS011;8838;50.144;8.176;2023-06-10T05:18:32;11.98;;;8.50;;
17441;SDS011;8838;50.144;8.176;2023-06-10T05:21:01;10.63;;;8.40;;
17441;SDS011;8838;50.144;8.176;2023-06-10T05:23:28;11.13;;;7.95;;
17441;SDS011;8838;50.144;8.176;2023-06-10T05:25:55;10.52;;;8.15;;
17441;SDS011;8838;50.144;8.176;2023-06-10T05:28:23;9.18;;;8.02;;
17441;SDS011;8838;50.144;8.176;2023-06-10T05:30:50;9.27;;;7.68;;
17441;SDS011;8838;50.144;8.176;2023-06-10T05:33:16;8.90;;;7.75;;
17441;SDS011;8838;50.144;8.176;2023-06-10T05:35:43;9.90;;;7.32;;
17441;SDS011;8838;50.144;8.176;2023-06-10T05:38:11;9.60;;;7.70;;
17441;SDS011;8838;50.144;8.176;2023-06-10T05:40:38;9.52;;;7.45;;
17441;SDS011;8838;50.144;8.176;2023-06-10T05:43:05;8.65;;;7.60;;
17441;SDS011;8838;50.144;8.176;2023-06-10T05:45:32;10.63;;;8.00;;
17441;SDS011;8838;50.144;8.176;2023-06-10T05:47:58;10.15;;;7.53;;
17441;SDS011;8838;50.144;8.176;2023-06-10T05:50:25;9.18;;;7.90;;
17441;SDS011;8838;50.144;8.176;2023-06-10T05:52:52;9.48;;;8.27;;
17441;SDS011;8838;50.144;8.176;2023-06-10T05:55:21;9.93;;;8.10;;
17441;SDS011;8838;50.144;8.176;2023-06-10T05:57:48;11.52;;;8.48;;
17441;SDS011;8838;50.144;8.176;2023-06-10T06:00:24;9.82;;;8.05;;
17441;SDS011;8838;50.144;8.176;2023-06-10T06:02:51;12.10;;;8.23;;
17441;SDS011;8838;50.144;8.176;2023-06-10T06:05:19;13.05;;;7.75;;
17441;SDS011;8838;50.144;8.176;2023-06-10T06:07:46;12.40;;;8.50;;
17441;SDS011;8838;50.144;8.176;2023-06-10T06:10:12;10.45;;;7.70;;
17441;SDS011;8838;50.144;8.176;2023-06-10T06:12:41;9.70;;;7.38;;
17441;SDS011;8838;50.144;8.176;2023-06-10T06:15:08;8.65;;;7.50;;
17441;SDS011;8838;50.144;8.176;2023-06-10T06:17:36;9.95;;;8.15;;
17441;SDS011;8838;50.144;8.176;2023-06-10T06:20:03;10.48;;;7.63;;
17441;SDS011;8838;50.144;8.176;2023-06-10T06:22:30;10.88;;;7.75;;
17441;SDS011;8838;50.144;8.176;2023-06-10T06:25:00;8.93;;;7.75;;
17441;SDS011;8838;50.144;8.176;2023-06-10T06:27:27;9.07;;;7.63;;
17441;SDS011;8838;50.144;8.176;2023-06-10T06:29:55;10.25;;;7.80;;
17441;SDS011;8838;50.144;8.176;2023-06-10T06:32:22;8.15;;;7.32;;
17441;SDS011;8838;50.144;8.176;2023-06-10T06:34:52;8.60;;;7.43;;
17441;SDS011;8838;50.144;8.176;2023-06-10T06:37:21;9.13;;;6.68;;
17441;SDS011;8838;50.144;8.176;2023-06-10T06:39:49;10.32;;;7.10;;
17441;SDS011;8838;50.144;8.176;2023-06-10T06:42:18;10.82;;;7.53;;
17441;SDS011;8838;50.144;8.176;2023-06-10T06:44:45;10.93;;;7.70;;
17441;SDS011;8838;50.144;8.176;2023-06-10T06:47:14;12.85;;;7.97;;
17441;SDS011;8838;50.144;8.176;2023-06-10T06:49:42;13.65;;;7.78;;
17441;SDS011;8838;50.144;8.176;2023-06-10T06:52:09;10.00;;;7.97;;
17441;SDS011;8838;50.144;8.176;2023-06-10T06:54:36;11.98;;;7.30;;
17441;SDS011;8838;50.144;8.176;2023-06-10T06:57:04;10.93;;;7.13;;
17441;SDS011;8838;50.144;8.176;2023-06-10T06:59:32;10.07;;;7.60;;
17441;SDS011;8838;50.144;8.176;2023-06-10T07:01:59;13.35;;;7.97;;
17441;SDS011;8838;50.144;8.176;2023-06-10T07:04:27;10.45;;;7.35;;
17441;SDS011;8838;50.144;8.176;2023-06-10T07:06:54;9.93;;;6.80;;
17441;SDS011;8838;50.144;8.176;2023-06-10T07:09:20;8.63;;;6.88;;
17441;SDS011;8838;50.144;8.176;2023-06-10T07:11:47;8.20;;;6.82;;
17441;SDS011;8838;50.144;8.176;2023-06-10T07:14:14;10.27;;;6.97;;
17441;SDS011;8838;50.144;8.176;2023-06-10T07:16:41;8.93;;;6.90;;
17441;SDS011;8838;50.144;8.176;2023-06-10T07:19:10;8.02;;;6.40;;
17441;SDS011;8838;50.144;8.176;2023-06-10T07:21:38;8.35;;;6.55;;
17441;SDS011;8838;50.144;8.176;2023-06-10T07:24:05;7.45;;;6.45;;
17441;SDS011;8838;50.144;8.176;2023-06-10T07:26:32;8.57;;;6.65;;
17441;SDS011;8838;50.144;8.176;2023-06-10T07:28:59;7.05;;;6.35;;
17441;SDS011;8838;50.144;8.176;2023-06-10T07:31:26;9.60;;;6.60;;
17441;SDS011;8838;50.144;8.176;2023-06-10T07:33:52;10.57;;;6.97;;
17441;SDS011;8838;50.144;8.176;2023-06-10T07:36:19;9.93;;;6.57;;
17441;SDS011;8838;50.144;8.176;2023-06-10T07:38:48;7.55;;;6.70;;
17441;SDS011;8838;50.144;8.176;2023-06-10T07:41:15;9.25;;;6.68;;
17441;SDS011;8838;50.144;8.176;2023-06-10T07:43:43;7.68;;;6.25;;
17441;SDS011;8838;50.144;8.176;2023-06-10T07:46:09;6.90;;;6.20;;
17441;SDS011;8838;50.144;8.176;2023-06-10T07:48:36;7.07;;;6.30;;
17441;SDS011;8838;50.144;8.176;2023-06-10T07:51:03;8.00;;;6.35;;
17441;SDS011;8838;50.144;8.176;2023-06-10T07:53:30;7.35;;;6.18;;
17441;SDS011;8838;50.144;8.176;2023-06-10T07:55:58;7.68;;;6.35;;
17441;SDS011;8838;50.144;8.176;2023-06-10T07:58:25;8.23;;;5.93;;
17441;SDS011;8838;50.144;8.176;2023-06-10T08:00:51;7.32;;;5.57;;
17441;SDS011;8838;50.144;8.176;2023-06-10T08:03:19;6.07;;;5.47;;
17441;SDS011;8838;50.144;8.176;2023-06-10T08:05:48;8.40;;;5.70;;
17441;SDS011;8838;50.144;8.176;2023-06-10T08:08:15;6.25;;;5.65;;
17441;SDS011;8838;50.144;8.176;2023-06-10T08:10:44;6.20;;;5.47;;
17441;SDS011;8838;50.144;8.176;2023-06-10T08:13:12;6.80;;;6.05;;
17441;SDS011;8838;50.144;8.176;2023-06-10T08:15:39;7.22;;;5.93;;
17441;SDS011;8838;50.144;8.176;2023-06-10T08:18:06;8.75;;;5.60;;
17441;SDS011;8838;50.144;8.176;2023-06-10T08:20:33;6.72;;;6.10;;
17441;SDS011;8838;50.144;8.176;2023-06-10T08:22:59;8.40;;;5.55;;
17441;SDS011;8838;50.144;8.176;2023-06-10T08:25:27;8.15;;;5.40;;
17441;SDS011;8838;50.144;8.176;2023-06-10T08:27:54;8.25;;;5.70;;
17441;SDS011;8838;50.144;8.176;2023-06-10T08:30:23;9.43;;;6.20;;
17441;SDS011;8838;50.144;8.176;2023-06-10T08:32:50;7.55;;;6.10;;
17441;SDS011;8838;50.144;8.176;2023-06-10T08:35:18;7.15;;;5.57;;
17441;SDS011;8838;50.144;8.176;2023-06-10T08:37:44;7.55;;;5.45;;
17441;SDS011;8838;50.144;8.176;2023-06-10T08:40:12;6.05;;;5.45;;
17441;SDS011;8838;50.144;8.176;2023-06-10T08:42:39;11.25;;;5.78;;
17441;SDS011;8838;50.144;8.176;2023-06-10T08:45:11;8.50;;;4.90;;
17441;SDS011;8838;50.144;8.176;2023-06-10T08:47:46;7.68;;;5.25;;
17441;SDS011;8838;50.144;8.176;2023-06-10T08:50:17;7.30;;;5.22;;
17441;SDS011;8838;50.144;8.176;2023-06-10T08:52:44;6.30;;;5.00;;
17441;SDS011;8838;50.144;8.176;2023-06-10T08:55:15;5.80;;;5.20;;
17441;SDS011;8838;50.144;8.176;2023-06-10T08:57:45;5.25;;;4.15;;
17441;SDS011;8838;50.144;8.176;2023-06-10T09:00:13;10.32;;;4.35;;
17441;SDS011;8838;50.144;8.176;2023-06-10T09:02:40;6.50;;;4.20;;
17441;SDS011;8838;50.144;8.176;2023-06-10T09:05:11;10.85;;;4.60;;
17441;SDS011;8838;50.144;8.176;2023-06-10T09:07:40;8.70;;;4.45;;
17441;SDS011;8838;50.144;8.176;2023-06-10T09:10:07;6.88;;;4.00;;
17441;SDS011;8838;50.144;8.176;2023-06-10T09:12:37;5.60;;;4.30;;
17441;SDS011;8838;50.144;8.176;2023-06-10T09:15:04;5.60;;;4.30;;
17441;SDS011;8838;50.144;8.176;2023-06-10T09:17:35;6.85;;;4.38;;
17441;SDS011;8838;50.144;8.176;2023-06-10T09:20:03;6.63;;;4.88;;
17441;SDS011;8838;50.144;8.176;2023-06-10T09:22:32;13.52;;;4.75;;
17441;SDS011;8838;50.144;8.176;2023-06-10T09:25:02;7.07;;;4.70;;
17441;SDS011;8838;50.144;8.176;2023-06-10T09:27:30;6.53;;;4.53;;
17441;SDS011;8838;50.144;8.176;2023-06-10T09:29:58;6.05;;;4.40;;
17441;SDS011;8838;50.144;8.176;2023-06-10T09:32:25;8.32;;;4.38;;
17441;SDS011;8838;50.144;8.176;2023-06-10T09:34:52;7.63;;;4.60;;
17441;SDS011;8838;50.144;8.176;2023-06-10T09:37:20;6.72;;;4.18;;
17441;SDS011;8838;50.144;8.176;2023-06-10T09:40:01;6.45;;;4.13;;
17441;SDS011;8838;50.144;8.176;2023-06-10T09:42:32;5.80;;;4.30;;
17441;SDS011;8838;50.144;8.176;2023-06-10T09:45:00;7.15;;;3.72;;
17441;SDS011;8838;50.144;8.176;2023-06-10T09:47:27;7.55;;;4.50;;
17441;SDS011;8838;50.144;8.176;2023-06-10T09:49:54;9.18;;;3.80;;
17441;SDS011;8838;50.144;8.176;2023-06-10T09:52:21;4.65;;;3.75;;
17441;SDS011;8838;50.144;8.176;2023-06-10T09:54:49;7.63;;;4.10;;
17441;SDS011;8838;50.144;8.176;2023-06-10T09:57:19;6.15;;;3.90;;
17441;SDS011;8838;50.144;8.176;2023-06-10T09:59:46;6.45;;;4.05;;
17441;SDS011;8838;50.144;8.176;2023-06-10T10:02:14;5.88;;;4.00;;
17441;SDS011;8838;50.144;8.176;2023-06-10T10:04:41;4.82;;;3.45;;
17441;SDS011;8838;50.144;8.176;2023-06-10T10:07:08;5.13;;;3.70;;
17441;SDS011;8838;50.144;8.176;2023-06-10T10:09:35;10.45;;;4.22;;
17441;SDS011;8838;50.144;8.176;2023-06-10T10:12:03;10.73;;;4.35;;
17441;SDS011;8838;50.144;8.176;2023-06-10T10:14:37;5.70;;;4.00;;
17441;SDS011;8838;50.144;8.176;2023-06-10T10:17:05;7.10;;;4.05;;
17441;SDS011;8838;50.144;8.176;2023-06-10T10:19:36;8.57;;;4.22;;
17441;SDS011;8838;50.144;8.176;2023-06-10T10:22:15;6.05;;;4.05;;
17441;SDS011;8838;50.144;8.176;2023-06-10T10:24:49;6.32;;;3.65;;
17441;SDS011;8838;50.144;8.176;2023-06-10T10:27:18;6.90;;;4.18;;
17441;SDS011;8838;50.144;8.176;2023-06-10T10:29:53;7.47;;;4.18;;
17441;SDS011;8838;50.144;8.176;2023-06-10T10:32:24;8.77;;;4.22;;
17441;SDS011;8838;50.144;8.176;2023-06-10T10:34:57;6.20;;;4.20;;
17441;SDS011;8838;50.144;8.176;2023-06-10T10:37:30;4.28;;;3.88;;
17441;SDS011;8838;50.144;8.176;2023-06-10T10:39:58;4.40;;;3.95;;
17441;SDS011;8838;50.144;8.176;2023-06-10T10:42:26;4.80;;;3.75;;
17441;SDS011;8838;50.144;8.176;2023-06-10T10:44:55;5.45;;;3.97;;
17441;SDS011;8838;50.144;8.176;2023-06-10T10:47:22;5.40;;;3.55;;
17441;SDS011;8838;50.144;8.176;2023-06-10T10:49:54;5.53;;;3.55;;
17441;SDS011;8838;50.144;8.176;2023-06-10T10:52:24;8.30;;;3.97;;
17441;SDS011;8838;50.144;8.176;2023-06-10T10:54:52;6.18;;;3.80;;
17441;SDS011;8838;50.144;8.176;2023-06-10T10:57:20;7.13;;;4.13;;
17441;SDS011;8838;50.144;8.176;2023-06-10T10:59:52;7.47;;;4.30;;
17441;SDS011;8838;50.144;8.176;2023-06-10T11:02:34;4.95;;;4.20;;
17441;SDS011;8838;50.144;8.176;2023-06-10T11:05:04;4.28;;;3.88;;
17441;SDS011;8838;50.144;8.176;2023-06-10T11:07:32;5.75;;;4.25;;
17441;SDS011;8838;50.144;8.176;2023-06-10T11:10:00;7.88;;;4.22;;
17441;SDS011;8838;50.144;8.176;2023-06-10T11:12:42;5.63;;;3.70;;
17441;SDS011;8838;50.144;8.176;2023-06-10T11:15:19;9.02;;;3.58;;
17441;SDS011;8838;50.144;8.176;2023-06-10T11:18:10;4.20;;;3.80;;
17441;SDS011;8838;50.144;8.176;2023-06-10T11:23:34;5.65;;;3.53;;
17441;SDS011;8838;50.144;8.176;2023-06-10T11:26:11;6.55;;;3.70;;
17441;SDS011;8838;50.144;8.176;2023-06-10T11:28:40;4.28;;;3.88;;
17441;SDS011;8838;50.144;8.176;2023-06-10T11:31:09;5.30;;;4.18;;
17441;SDS011;8838;50.144;8.176;2023-06-10T11:33:44;4.78;;;3.50;;
17441;SDS011;8838;50.144;8.176;2023-06-10T11:36:12;3.88;;;3.47;;
17441;SDS011;8838;50.144;8.176;2023-06-10T11:38:40;5.20;;;3.60;;
17441;SDS011;8838;50.144;8.176;2023-06-10T11:41:07;5.32;;;3.40;;
17441;SDS011;8838;50.144;8.176;2023-06-10T11:43:34;4.30;;;3.20;;
17441;SDS011;8838;50.144;8.176;2023-06-10T11:46:01;4.30;;;3.40;;
17441;SDS011;8838;50.144;8.176;2023-06-10T11:48:29;7.90;;;3.75;;
17441;SDS011;8838;50.144;8.176;2023-06-10T11:50:56;6.85;;;3.78;;
17441;SDS011;8838;50.144;8.176;2023-06-10T11:53:23;4.55;;;3.63;;
17441;SDS011;8838;50.144;8.176;2023-06-10T11:55:50;5.97;;;3.88;;
17441;SDS011;8838;50.144;8.176;2023-06-10T11:58:19;7.97;;;3.88;;
17441;SDS011;8838;50.144;8.176;2023-06-10T12:00:47;4.70;;;3.55;;
17441;SDS011;8838;50.144;8.176;2023-06-10T12:03:16;6.03;;;3.97;;
17441;SDS011;8838;50.144;8.176;2023-06-10T12:05:55;4.88;;;3.67;;
17441;SDS011;8838;50.144;8.176;2023-06-10T12:08:23;6.45;;;4.20;;
17441;SDS011;8838;50.144;8.176;2023-06-10T12:10:50;4.43;;;4.00;;
17441;SDS011;8838;50.144;8.176;2023-06-10T12:13:17;6.43;;;3.90;;
17441;SDS011;8838;50.144;8.176;2023-06-10T12:15:44;7.68;;;3.67;;
17441;SDS011;8838;50.144;8.176;2023-06-10T12:18:15;3.92;;;3.30;;
17441;SDS011;8838;50.144;8.176;2023-06-10T12:20:45;6.82;;;3.72;;
17441;SDS011;8838;50.144;8.176;2023-06-10T12:23:14;5.03;;;3.50;;
17441;SDS011;8838;50.144;8.176;2023-06-10T12:25:49;5.53;;;3.80;;
17441;SDS011;8838;50.144;8.176;2023-06-10T12:28:20;5.35;;;4.85;;
17441;SDS011;8838;50.144;8.176;2023-06-10T12:30:47;6.15;;;4.07;;
17441;SDS011;8838;50.144;8.176;2023-06-10T12:33:17;5.57;;;3.65;;
17441;SDS011;8838;50.144;8.176;2023-06-10T12:35:48;4.75;;;3.45;;
17441;SDS011;8838;50.144;8.176;2023-06-10T12:38:21;4.30;;;3.30;;
17441;SDS011;8838;50.144;8.176;2023-06-10T12:40:49;4.00;;;3.55;;
17441;SDS011;8838;50.144;8.176;2023-06-10T12:43:19;6.22;;;3.45;;
17441;SDS011;8838;50.144;8.176;2023-06-10T12:45:46;4.90;;;3.50;;
17441;SDS011;8838;50.144;8.176;2023-06-10T12:48:17;6.28;;;3.65;;
17441;SDS011;8838;50.144;8.176;2023-06-10T12:50:46;7.47;;;3.78;;
17441;SDS011;8838;50.144;8.176;2023-06-10T12:53:16;4.35;;;3.30;;
17441;SDS011;8838;50.144;8.176;2023-06-10T12:55:44;4.13;;;3.60;;
17441;SDS011;8838;50.144;8.176;2023-06-10T12:58:12;10.48;;;3.95;;
17441;SDS011;8838;50.144;8.176;2023-06-10T13:00:39;7.47;;;3.20;;
17441;SDS011;8838;50.144;8.176;2023-06-10T13:03:07;4.15;;;3.75;;
17441;SDS011;8838;50.144;8.176;2023-06-10T13:05:35;4.20;;;3.60;;
17441;SDS011;8838;50.144;8.176;2023-06-10T13:08:03;4.82;;;3.60;;
17441;SDS011;8838;50.144;8.176;2023-06-10T13:10:31;4.85;;;3.38;;
17441;SDS011;8838;50.144;8.176;2023-06-10T13:12:59;6.05;;;4.20;;
17441;SDS011;8838;50.144;8.176;2023-06-10T13:15:26;5.93;;;3.85;;
17441;SDS011;8838;50.144;8.176;2023-06-10T13:17:55;6.40;;;4.10;;
17441;SDS011;8838;50.144;8.176;2023-06-10T13:20:22;6.35;;;4.13;;
17441;SDS011;8838;50.144;8.176;2023-06-10T13:22:49;5.97;;;3.85;;
17441;SDS011;8838;50.144;8.176;2023-06-10T13:25:16;8.30;;;4.45;;
17441;SDS011;8838;50.144;8.176;2023-06-10T13:27:43;7.55;;;4.32;;
17441;SDS011;8838;50.144;8.176;2023-06-10T13:30:12;5.25;;;3.72;;
17441;SDS011;8838;50.144;8.176;2023-06-10T13:32:39;5.45;;;3.80;;
17441;SDS011;8838;50.144;8.176;2023-06-10T13:35:06;5.32;;;4.03;;
17441;SDS011;8838;50.144;8.176;2023-06-10T13:37:33;7.07;;;4.00;;
17441;SDS011;8838;50.144;8.176;2023-06-10T13:40:00;5.47;;;4.10;;
17441;SDS011;8838;50.144;8.176;2023-06-10T13:42:27;7.15;;;4.05;;
17441;SDS011;8838;50.144;8.176;2023-06-10T13:44:55;7.50;;;4.05;;
17441;SDS011;8838;50.144;8.176;2023-06-10T13:47:23;5.82;;;4.18;;
17441;SDS011;8838;50.144;8.176;2023-06-10T13:49:50;7.32;;;4.18;;
17441;SDS011;8838;50.144;8.176;2023-06-10T13:52:17;5.07;;;3.80;;
17441;SDS011;8838;50.144;8.176;2023-06-10T13:54:44;5.32;;;4.03;;
17441;SDS011;8838;50.144;8.176;2023-06-10T13:57:11;7.60;;;4.50;;
17441;SDS011;8838;50.144;8.176;2023-06-10T13:59:38;6.35;;;4.30;;
17441;SDS011;8838;50.144;8.176;2023-06-10T14:02:04;6.43;;;4.45;;
17441;SDS011;8838;50.144;8.176;2023-06-10T14:04:33;5.85;;;4.38;;
17441;SDS011;8838;50.144;8.176;2023-06-10T14:07:00;5.75;;;4.63;;
17441;SDS011;8838;50.144;8.176;2023-06-10T14:09:30;6.07;;;4.40;;
17441;SDS011;8838;50.144;8.176;2023-06-10T14:11:56;8.00;;;4.45;;
17441;SDS011;8838;50.144;8.176;2023-06-10T14:14:36;4.65;;;3.97;;
17441;SDS011;8838;50.144;8.176;2023-06-10T14:17:03;6.25;;;4.13;;
17441;SDS011;8838;50.144;8.176;2023-06-10T14:19:30;5.85;;;4.00;;
17441;SDS011;8838;50.144;8.176;2023-06-10T14:21:59;5.38;;;3.75;;
17441;SDS011;8838;50.144;8.176;2023-06-10T14:24:26;7.40;;;4.13;;
17441;SDS011;8838;50.144;8.176;2023-06-10T14:26:53;7.55;;;4.47;;
17441;SDS011;8838;50.144;8.176;2023-06-10T14:29:20;6.63;;;4.20;;
17441;SDS011;8838;50.144;8.176;2023-06-10T14:31:47;6.32;;;4.53;;
17441;SDS011;8838;50.144;8.176;2023-06-10T14:34:14;5.70;;;4.28;;
17441;SDS011;8838;50.144;8.176;2023-06-10T14:36:40;5.75;;;4.72;;
17441;SDS011;8838;50.144;8.176;2023-06-10T14:39:09;5.03;;;4.38;;
17441;SDS011;8838;50.144;8.176;2023-06-10T14:41:35;5.80;;;4.25;;
17441;SDS011;8838;50.144;8.176;2023-06-10T14:44:02;6.20;;;4.50;;
17441;SDS011;8838;50.144;8.176;2023-06-10T14:46:33;7.03;;;4.47;;
17441;SDS011;8838;50.144;8.176;2023-06-10T14:49:00;5.35;;;4.32;;
17441;SDS011;8838;50.144;8.176;2023-06-10T14:51:27;6.65;;;4.50;;
17441;SDS011;8838;50.144;8.176;2023-06-10T14:53:56;5.18;;;4.05;;
17441;SDS011;8838;50.144;8.176;2023-06-10T14:56:25;6.40;;;4.30;;
17441;SDS011;8838;50.144;8.176;2023-06-10T14:58:52;5.75;;;4.47;;
17441;SDS011;8838;50.144;8.176;2023-06-10T15:01:19;7.72;;;4.63;;
17441;SDS011;8838;50.144;8.176;2023-06-10T15:03:48;7.97;;;4.78;;
17441;SDS011;8838;50.144;8.176;2023-06-10T15:06:15;8.07;;;5.00;;